sensor_id;sensor_type;location;lat;lon;timestamp;pressure;altitude;pressure_sealevel;temperature;humidity
43312;BME280;30041;48.300;16.352;2023-03-24T00:02:05;99315.09;;;22.38;42.49
43312;BME280;30041;48.300;16.352;2023-03-24T00:04:32;99308.06;;;22.37;42.70
43312;BME280;30041;48.300;16.352;2023-03-24T00:06:58;99298.91;;;22.38;42.44
43312;BME280;30041;48.300;16.352;2023-03-24T00:09:23;99301.59;;;22.38;42.46
43312;BME280;30041;48.300;16.352;2023-03-24T00:11:49;99311.59;;;22.37;42.44
43312;BME280;30041;48.300;16.352;2023-03-24T00:14:14;99311.31;;;22.39;42.45
43312;BME280;30041;48.300;16.352;2023-03-24T00:16:41;99303.50;;;22.37;42.52
43312;BME280;30041;48.300;16.352;2023-03-24T00:19:07;99300.78;;;22.37;42.42
43312;BME280;30041;48.300;16.352;2023-03-24T00:21:33;99304.88;;;22.40;42.34
43312;BME280;30041;48.300;16.352;2023-03-24T00:23:58;99299.47;;;22.40;42.39
43312;BME280;30041;48.300;16.352;2023-03-24T00:26:24;99301.59;;;22.38;42.53
43312;BME280;30041;48.300;16.352;2023-03-24T00:28:50;99304.31;;;22.38;42.39
43312;BME280;30041;48.300;16.352;2023-03-24T00:31:16;99298.91;;;22.38;42.30
43312;BME280;30041;48.300;16.352;2023-03-24T00:33:43;99304.53;;;22.36;42.65
43312;BME280;30041;48.300;16.352;2023-03-24T00:36:10;99299.16;;;22.36;42.36
43312;BME280;30041;48.300;16.352;2023-03-24T00:38:37;99294.56;;;22.37;42.23
43312;BME280;30041;48.300;16.352;2023-03-24T00:41:04;99298.34;;;22.36;42.44
43312;BME280;30041;48.300;16.352;2023-03-24T00:43:30;99277.53;;;22.36;42.32
43312;BME280;30041;48.300;16.352;2023-03-24T00:46:00;99267.56;;;22.37;42.40
43312;BME280;30041;48.300;16.352;2023-03-24T00:48:28;99262.44;;;22.35;42.60
43312;BME280;30041;48.300;16.352;2023-03-24T00:50:54;99261.34;;;22.36;42.57
43312;BME280;30041;48.300;16.352;2023-03-24T00:53:20;99266.75;;;22.36;42.50
43312;BME280;30041;48.300;16.352;2023-03-24T00:55:46;99264.59;;;22.38;42.51
43312;BME280;30041;48.300;16.352;2023-03-24T00:58:12;99269.19;;;22.38;42.23
43312;BME280;30041;48.300;16.352;2023-03-24T01:00:38;99263.22;;;22.36;42.39
43312;BME280;30041;48.300;16.352;2023-03-24T01:03:03;99248.66;;;22.37;42.52
43312;BME280;30041;48.300;16.352;2023-03-24T01:05:30;99256.75;;;22.37;42.27
43312;BME280;30041;48.300;16.352;2023-03-24T01:07:57;99255.13;;;22.36;42.40
43312;BME280;30041;48.300;16.352;2023-03-24T01:10:23;99247.03;;;22.36;42.24
43312;BME280;30041;48.300;16.352;2023-03-24T01:12:49;99247.59;;;22.38;42.27
43312;BME280;30041;48.300;16.352;2023-03-24T01:15:17;99247.59;;;22.38;42.53
43312;BME280;30041;48.300;16.352;2023-03-24T01:17:43;99253.00;;;22.38;42.46
43312;BME280;30041;48.300;16.352;2023-03-24T01:20:09;99247.84;;;22.36;42.50
43312;BME280;30041;48.300;16.352;2023-03-24T01:22:35;99254.91;;;22.37;42.34
43312;BME280;30041;48.300;16.352;2023-03-24T01:25:01;99249.75;;;22.36;42.30
43312;BME280;30041;48.300;16.352;2023-03-24T01:27:27;99252.94;;;22.33;42.56
43312;BME280;30041;48.300;16.352;2023-03-24T01:29:58;99249.75;;;22.36;42.35
43312;BME280;30041;48.300;16.352;2023-03-24T01:32:23;99240.25;;;22.33;42.49
43312;BME280;30041;48.300;16.352;2023-03-24T01:34:49;99232.97;;;22.34;42.45
43312;BME280;30041;48.300;16.352;2023-03-24T01:37:14;99226.53;;;22.35;42.53
43312;BME280;30041;48.300;16.352;2023-03-24T01:39:40;99234.88;;;22.33;42.52
43312;BME280;30041;48.300;16.352;2023-03-24T01:42:12;99224.06;;;22.33;42.60
43312;BME280;30041;48.300;16.352;2023-03-24T01:44:41;99218.09;;;22.31;42.56
43312;BME280;30041;48.300;16.352;2023-03-24T01:47:07;99220.56;;;22.33;42.48
43312;BME280;30041;48.300;16.352;2023-03-24T01:49:40;99217.84;;;22.33;42.42
43312;BME280;30041;48.300;16.352;2023-03-24T01:52:20;99208.09;;;22.32;42.56
43312;BME280;30041;48.300;16.352;2023-03-24T01:54:50;99195.19;;;22.34;42.41
43312;BME280;30041;48.300;16.352;2023-03-24T01:57:24;99194.94;;;22.35;42.51
43312;BME280;30041;48.300;16.352;2023-03-24T01:59:53;99197.31;;;22.32;42.40
43312;BME280;30041;48.300;16.352;2023-03-24T02:02:19;99195.19;;;22.34;42.43
43312;BME280;30041;48.300;16.352;2023-03-24T02:04:50;99190.59;;;22.34;42.26
43312;BME280;30041;48.300;16.352;2023-03-24T02:07:33;99196.50;;;22.31;42.50
43312;BME280;30041;48.300;16.352;2023-03-24T02:10:04;99184.91;;;22.31;42.48
43312;BME280;30041;48.300;16.352;2023-03-24T02:12:30;99189.22;;;22.32;42.39
43312;BME280;30041;48.300;16.352;2023-03-24T02:14:57;99186.28;;;22.33;42.39
43312;BME280;30041;48.300;16.352;2023-03-24T02:33:28;99205.41;;;22.32;42.26
43312;BME280;30041;48.300;16.352;2023-03-24T02:41:25;99189.78;;;22.34;42.25
43312;BME280;30041;48.300;16.352;2023-03-24T02:46:44;99187.59;;;22.31;42.55
43312;BME280;30041;48.300;16.352;2023-03-24T02:52:09;99177.34;;;22.33;42.28
43312;BME280;30041;48.300;16.352;2023-03-24T02:54:45;99187.88;;;22.34;42.53
43312;BME280;30041;48.300;16.352;2023-03-24T02:57:22;99188.72;;;22.35;42.12
43312;BME280;30041;48.300;16.352;2023-03-24T03:00:07;99179.50;;;22.31;42.49
43312;BME280;30041;48.300;16.352;2023-03-24T03:02:42;99181.91;;;22.32;42.45
43312;BME280;30041;48.300;16.352;2023-03-24T03:05:18;99188.66;;;22.30;42.33
43312;BME280;30041;48.300;16.352;2023-03-24T03:07:47;99188.97;;;22.33;42.28
43312;BME280;30041;48.300;16.352;2023-03-24T03:10:19;99184.63;;;22.32;42.47
43312;BME280;30041;48.300;16.352;2023-03-24T03:12:50;99186.28;;;22.33;42.34
43312;BME280;30041;48.300;16.352;2023-03-24T03:15:22;99183.81;;;22.32;42.47
43312;BME280;30041;48.300;16.352;2023-03-24T03:17:57;99176.53;;;22.32;42.34
43312;BME280;30041;48.300;16.352;2023-03-24T03:20:26;99178.16;;;22.33;42.17
43312;BME280;30041;48.300;16.352;2023-03-24T03:22:58;99173.56;;;22.34;42.42
43312;BME280;30041;48.300;16.352;2023-03-24T03:25:29;99177.59;;;22.31;42.19
43312;BME280;30041;48.300;16.352;2023-03-24T03:27:59;99178.16;;;22.33;42.54
43312;BME280;30041;48.300;16.352;2023-03-24T03:30:33;99179.50;;;22.31;42.40
43312;BME280;30041;48.300;16.352;2023-03-24T03:33:11;99176.78;;;22.31;42.43
43312;BME280;30041;48.300;16.352;2023-03-24T03:38:35;99159.75;;;22.30;42.20
43312;BME280;30041;48.300;16.352;2023-03-24T03:41:06;99167.38;;;22.33;42.50
43312;BME280;30041;48.300;16.352;2023-03-24T03:43:32;99163.84;;;22.33;42.34
43312;BME280;30041;48.300;16.352;2023-03-24T03:45:59;99165.16;;;22.30;42.33
43312;BME280;30041;48.300;16.352;2023-03-24T03:48:26;99163.53;;;22.29;42.56
43312;BME280;30041;48.300;16.352;2023-03-24T03:50:53;99166.81;;;22.31;42.30
43312;BME280;30041;48.300;16.352;2023-03-24T03:53:23;99159.75;;;22.30;42.30
43312;BME280;30041;48.300;16.352;2023-03-24T03:55:51;99158.72;;;22.31;42.47
43312;BME280;30041;48.300;16.352;2023-03-24T03:58:17;99158.94;;;22.30;42.51
43312;BME280;30041;48.300;16.352;2023-03-24T04:00:43;99166.56;;;22.33;42.53
43312;BME280;30041;48.300;16.352;2023-03-24T04:06:18;99158.94;;;22.30;42.33
43312;BME280;30041;48.300;16.352;2023-03-24T04:08:53;99161.41;;;22.31;42.35
43312;BME280;30041;48.300;16.352;2023-03-24T04:25:00;99166.81;;;22.31;42.10
43312;BME280;30041;48.300;16.352;2023-03-24T04:33:11;99181.69;;;22.34;42.31
43312;BME280;30041;48.300;16.352;2023-03-24T04:35:45;99173.25;;;22.30;42.38
43312;BME280;30041;48.300;16.352;2023-03-24T04:38:15;99176.78;;;22.31;42.32
43312;BME280;30041;48.300;16.352;2023-03-24T04:40:45;99166.81;;;22.31;42.29
43312;BME280;30041;48.300;16.352;2023-03-24T04:43:14;99162.47;;;22.30;42.35
43312;BME280;30041;48.300;16.352;2023-03-24T04:45:42;99151.41;;;22.32;42.43
43312;BME280;30041;48.300;16.352;2023-03-24T04:48:09;99149.25;;;22.29;42.51
43312;BME280;30041;48.300;16.352;2023-03-24T04:50:38;99140.63;;;22.32;42.29
43312;BME280;30041;48.300;16.352;2023-03-24T04:53:06;99130.63;;;22.32;42.27
43312;BME280;30041;48.300;16.352;2023-03-24T04:55:56;99125.22;;;22.32;42.28
43312;BME280;30041;48.300;16.352;2023-03-24T04:58:23;99119.03;;;22.32;42.22
43312;BME280;30041;48.300;16.352;2023-03-24T05:00:49;99117.97;;;22.33;42.43
43312;BME280;30041;48.300;16.352;2023-03-24T05:03:16;99109.88;;;22.33;42.40
43312;BME280;30041;48.300;16.352;2023-03-24T05:05:43;99115.28;;;22.33;42.38
43312;BME280;30041;48.300;16.352;2023-03-24T05:08:10;99115.28;;;22.33;42.34
43312;BME280;30041;48.300;16.352;2023-03-24T05:10:36;99117.97;;;22.33;42.25
43312;BME280;30041;48.300;16.352;2023-03-24T05:13:03;99111.47;;;22.34;42.22
43312;BME280;30041;48.300;16.352;2023-03-24T05:15:29;99102.81;;;22.32;42.39
43312;BME280;30041;48.300;16.352;2023-03-24T05:17:55;99109.88;;;22.33;42.26
43312;BME280;30041;48.300;16.352;2023-03-24T05:20:21;99099.31;;;22.31;42.47
43312;BME280;30041;48.300;16.352;2023-03-24T05:22:47;99096.88;;;22.30;42.51
43312;BME280;30041;48.300;16.352;2023-03-24T05:25:12;99096.88;;;22.30;42.34
43312;BME280;30041;48.300;16.352;2023-03-24T05:27:38;99108.22;;;22.32;42.54
43312;BME280;30041;48.300;16.352;2023-03-24T05:30:04;99108.22;;;22.32;42.32
43312;BME280;30041;48.300;16.352;2023-03-24T05:32:30;99104.97;;;22.30;42.61
43312;BME280;30041;48.300;16.352;2023-03-24T05:34:56;99117.41;;;22.31;42.54
43312;BME280;30041;48.300;16.352;2023-03-24T05:37:22;99126.31;;;22.31;42.54
43312;BME280;30041;48.300;16.352;2023-03-24T05:39:47;99117.41;;;22.31;42.27
43312;BME280;30041;48.300;16.352;2023-03-24T05:42:14;99123.84;;;22.30;42.55
43312;BME280;30041;48.300;16.352;2023-03-24T05:44:40;99127.38;;;22.30;42.48
43312;BME280;30041;48.300;16.352;2023-03-24T05:47:05;99112.25;;;22.29;42.42
43312;BME280;30041;48.300;16.352;2023-03-24T05:49:31;99110.38;;;22.30;42.40
43312;BME280;30041;48.300;16.352;2023-03-24T05:51:57;99092.56;;;22.29;42.50
43312;BME280;30041;48.300;16.352;2023-03-24T05:54:22;99084.16;;;22.30;42.35
43312;BME280;30041;48.300;16.352;2023-03-24T05:56:48;99078.78;;;22.30;42.38
43312;BME280;30041;48.300;16.352;2023-03-24T05:59:14;99069.88;;;22.30;42.42
43312;BME280;30041;48.300;16.352;2023-03-24T06:01:39;99067.16;;;22.30;42.64
43312;BME280;30041;48.300;16.352;2023-03-24T06:04:05;99070.44;;;22.32;42.78
43312;BME280;30041;48.300;16.352;2023-03-24T06:06:30;99066.78;;;22.21;43.37
43312;BME280;30041;48.300;16.352;2023-03-24T06:08:56;99072.16;;;22.16;43.58
43312;BME280;30041;48.300;16.352;2023-03-24T06:11:21;99082.63;;;22.12;43.57
43312;BME280;30041;48.300;16.352;2023-03-24T06:13:47;99075.63;;;22.11;43.64
43312;BME280;30041;48.300;16.352;2023-03-24T06:16:13;99080.69;;;22.08;43.84
43312;BME280;30041;48.300;16.352;2023-03-24T06:18:38;99070.22;;;22.11;43.45
43312;BME280;30041;48.300;16.352;2023-03-24T06:21:04;99066.72;;;22.11;43.61
43312;BME280;30041;48.300;16.352;2023-03-24T06:23:29;99060.50;;;22.10;43.61
43312;BME280;30041;48.300;16.352;2023-03-24T06:25:57;99044.84;;;22.12;43.77
43312;BME280;30041;48.300;16.352;2023-03-24T06:28:23;99056.47;;;22.13;43.85
43312;BME280;30041;48.300;16.352;2023-03-24T06:30:49;99059.75;;;22.15;43.93
43312;BME280;30041;48.300;16.352;2023-03-24T06:33:14;99054.63;;;22.18;43.98
43312;BME280;30041;48.300;16.352;2023-03-24T06:35:40;99067.31;;;22.18;43.77
43312;BME280;30041;48.300;16.352;2023-03-24T06:38:06;99074.03;;;22.15;43.74
43312;BME280;30041;48.300;16.352;2023-03-24T06:40:32;99072.16;;;22.16;43.73
43312;BME280;30041;48.300;16.352;2023-03-24T06:42:58;99070.53;;;22.15;43.74
43312;BME280;30041;48.300;16.352;2023-03-24T06:45:24;99064.56;;;22.13;44.01
43312;BME280;30041;48.300;16.352;2023-03-24T06:47:53;99064.81;;;22.11;43.96
43312;BME280;30041;48.300;16.352;2023-03-24T06:50:19;99068.59;;;22.10;43.93
43312;BME280;30041;48.300;16.352;2023-03-24T06:52:45;99073.16;;;22.10;43.76
43312;BME280;30041;48.300;16.352;2023-03-24T06:55:10;99074.50;;;22.07;43.79
43312;BME280;30041;48.300;16.352;2023-03-24T06:57:36;99070.41;;;22.05;43.88
43312;BME280;30041;48.300;16.352;2023-03-24T07:00:01;99070.75;;;22.08;43.87
43312;BME280;30041;48.300;16.352;2023-03-24T07:02:27;99069.97;;;22.13;44.00
43312;BME280;30041;48.300;16.352;2023-03-24T07:04:52;99070.59;;;21.93;42.72
43312;BME280;30041;48.300;16.352;2023-03-24T07:07:18;99071.84;;;21.85;43.81
43312;BME280;30041;48.300;16.352;2023-03-24T07:09:43;99073.16;;;21.83;43.11
43312;BME280;30041;48.300;16.352;2023-03-24T07:12:09;99071.53;;;21.82;43.66
43312;BME280;30041;48.300;16.352;2023-03-24T07:14:34;99082.63;;;21.85;43.83
43312;BME280;30041;48.300;16.352;2023-03-24T07:17:00;99078.59;;;21.88;43.71
43312;BME280;30041;48.300;16.352;2023-03-24T07:19:25;99078.13;;;21.91;43.38
43312;BME280;30041;48.300;16.352;2023-03-24T07:21:51;99082.00;;;21.78;41.50
43312;BME280;30041;48.300;16.352;2023-03-24T07:24:17;99083.72;;;21.62;40.44
43312;BME280;30041;48.300;16.352;2023-03-24T07:26:43;99082.84;;;21.56;41.25
43312;BME280;30041;48.300;16.352;2023-03-24T07:29:09;99084.78;;;21.61;42.63
43312;BME280;30041;48.300;16.352;2023-03-24T07:31:35;99085.34;;;21.63;43.10
43312;BME280;30041;48.300;16.352;2023-03-24T07:34:00;99074.31;;;21.65;43.00
43312;BME280;30041;48.300;16.352;2023-03-24T07:36:25;99083.00;;;21.72;43.12
43312;BME280;30041;48.300;16.352;2023-03-24T07:38:51;99072.34;;;21.82;43.04
43312;BME280;30041;48.300;16.352;2023-03-24T07:41:16;99075.84;;;21.83;43.03
43312;BME280;30041;48.300;16.352;2023-03-24T07:43:42;99068.53;;;21.78;43.58
43312;BME280;30041;48.300;16.352;2023-03-24T07:46:07;99071.22;;;21.78;43.54
43312;BME280;30041;48.300;16.352;2023-03-24T07:48:33;99071.47;;;21.76;43.66
43312;BME280;30041;48.300;16.352;2023-03-24T07:50:58;99080.41;;;21.77;43.82
43312;BME280;30041;48.300;16.352;2023-03-24T07:53:24;99075.81;;;21.77;43.57
43312;BME280;30041;48.300;16.352;2023-03-24T07:55:49;99080.06;;;21.73;43.72
43312;BME280;30041;48.300;16.352;2023-03-24T07:58:15;99078.59;;;21.88;43.30
43312;BME280;30041;48.300;16.352;2023-03-24T08:00:41;99077.75;;;22.09;42.90
43312;BME280;30041;48.300;16.352;2023-03-24T08:03:06;99068.19;;;22.24;42.33
43312;BME280;30041;48.300;16.352;2023-03-24T08:05:33;99069.63;;;22.31;42.21
43312;BME280;30041;48.300;16.352;2023-03-24T08:07:59;99071.56;;;22.36;42.27
43312;BME280;30041;48.300;16.352;2023-03-24T08:10:27;99068.88;;;22.41;42.11
43312;BME280;30041;48.300;16.352;2023-03-24T08:12:54;99063.91;;;22.28;42.62
43312;BME280;30041;48.300;16.352;2023-03-24T08:15:20;99066.34;;;22.02;43.43
43312;BME280;30041;48.300;16.352;2023-03-24T08:17:47;99064.66;;;21.96;43.67
43312;BME280;30041;48.300;16.352;2023-03-24T08:20:13;99068.50;;;22.00;43.89
43312;BME280;30041;48.300;16.352;2023-03-24T08:22:43;99063.84;;;21.95;43.84
43312;BME280;30041;48.300;16.352;2023-03-24T08:25:10;99065.22;;;21.98;44.15
43312;BME280;30041;48.300;16.352;2023-03-24T08:27:37;99062.84;;;22.02;44.07
43312;BME280;30041;48.300;16.352;2023-03-24T08:30:05;99057.03;;;21.88;44.30
43312;BME280;30041;48.300;16.352;2023-03-24T08:32:31;99054.28;;;21.83;44.36
43312;BME280;30041;48.300;16.352;2023-03-24T08:34:57;99047.50;;;21.80;44.25
43312;BME280;30041;48.300;16.352;2023-03-24T08:37:23;99040.75;;;21.77;44.45
43312;BME280;30041;48.300;16.352;2023-03-24T08:39:48;99044.25;;;21.78;44.45
43312;BME280;30041;48.300;16.352;2023-03-24T08:42:14;99042.06;;;21.75;44.50
43312;BME280;30041;48.300;16.352;2023-03-24T08:44:39;99043.94;;;21.74;44.59
43312;BME280;30041;48.300;16.352;2023-03-24T08:47:05;99045.34;;;21.77;44.22
43312;BME280;30041;48.300;16.352;2023-03-24T08:49:30;99052.03;;;21.74;44.53
43312;BME280;30041;48.300;16.352;2023-03-24T08:51:56;99052.28;;;21.73;44.49
43312;BME280;30041;48.300;16.352;2023-03-24T08:54:21;99056.94;;;21.77;44.30
43312;BME280;30041;48.300;16.352;2023-03-24T08:56:47;99057.94;;;21.71;44.26
43312;BME280;30041;48.300;16.352;2023-03-24T08:59:12;99066.63;;;21.79;44.29
43312;BME280;30041;48.300;16.352;2023-03-24T09:01:38;99057.22;;;21.81;44.27
43312;BME280;30041;48.300;16.352;2023-03-24T09:04:04;99070.19;;;21.79;44.24
43312;BME280;30041;48.300;16.352;2023-03-24T09:06:29;99066.41;;;22.07;43.36
43312;BME280;30041;48.300;16.352;2023-03-24T09:08:55;99063.63;;;22.24;43.07
43312;BME280;30041;48.300;16.352;2023-03-24T09:11:21;99068.28;;;22.34;42.88
43312;BME280;30041;48.300;16.352;2023-03-24T09:13:47;99064.81;;;22.38;42.83
43312;BME280;30041;48.300;16.352;2023-03-24T09:16:13;99074.44;;;22.02;42.85
43312;BME280;30041;48.300;16.352;2023-03-24T09:18:39;99072.34;;;21.82;43.73
43312;BME280;30041;48.300;16.352;2023-03-24T09:21:05;99077.94;;;21.75;44.30
43312;BME280;30041;48.300;16.352;2023-03-24T09:23:31;99074.94;;;21.72;44.25
43312;BME280;30041;48.300;16.352;2023-03-24T09:25:58;99079.50;;;21.71;44.12
43312;BME280;30041;48.300;16.352;2023-03-24T09:28:24;99081.66;;;21.69;44.35
43312;BME280;30041;48.300;16.352;2023-03-24T09:30:50;99074.34;;;21.70;44.49
43312;BME280;30041;48.300;16.352;2023-03-24T09:33:20;99073.78;;;21.68;44.45
43312;BME280;30041;48.300;16.352;2023-03-24T09:35:52;99073.56;;;21.69;44.34
43312;BME280;30041;48.300;16.352;2023-03-24T09:38:18;99074.34;;;21.70;44.40
43312;BME280;30041;48.300;16.352;2023-03-24T09:40:44;99073.56;;;21.69;44.46
43312;BME280;30041;48.300;16.352;2023-03-24T09:43:31;99075.38;;;21.64;44.57
43312;BME280;30041;48.300;16.352;2023-03-24T09:46:00;99059.50;;;21.67;44.32
43312;BME280;30041;48.300;16.352;2023-03-24T09:48:31;99064.91;;;21.67;44.44
43312;BME280;30041;48.300;16.352;2023-03-24T09:53:44;99063.75;;;21.63;44.68
43312;BME280;30041;48.300;16.352;2023-03-24T09:56:20;99055.94;;;21.62;44.49
43312;BME280;30041;48.300;16.352;2023-03-24T09:59:00;99060.50;;;21.61;44.75
43312;BME280;30041;48.300;16.352;2023-03-24T10:01:27;99059.50;;;21.67;44.56
43312;BME280;30041;48.300;16.352;2023-03-24T10:03:56;99054.63;;;21.64;44.74
43312;BME280;30041;48.300;16.352;2023-03-24T10:06:28;99052.97;;;21.63;44.57
43312;BME280;30041;48.300;16.352;2023-03-24T10:09:17;99053.25;;;21.62;44.94
43312;BME280;30041;48.300;16.352;2023-03-24T10:14:23;99045.44;;;21.65;44.60
43312;BME280;30041;48.300;16.352;2023-03-24T10:16:57;99041.16;;;21.64;44.55
43312;BME280;30041;48.300;16.352;2023-03-24T10:22:38;99034.88;;;21.59;44.82
43312;BME280;30041;48.300;16.352;2023-03-24T10:25:19;99029.28;;;21.65;44.37
43312;BME280;30041;48.300;16.352;2023-03-24T10:27:59;99030.03;;;21.61;44.17
43312;BME280;30041;48.300;16.352;2023-03-24T10:30:28;99030.31;;;21.59;44.35
43312;BME280;30041;48.300;16.352;2023-03-24T10:32:56;99024.34;;;21.57;44.90
43312;BME280;30041;48.300;16.352;2023-03-24T10:35:35;99022.50;;;21.63;44.73
43312;BME280;30041;48.300;16.352;2023-03-24T10:38:10;99024.63;;;21.61;44.67
43312;BME280;30041;48.300;16.352;2023-03-24T10:40:39;99025.72;;;21.60;44.69
43312;BME280;30041;48.300;16.352;2023-03-24T10:43:06;99028.16;;;21.61;44.82
43312;BME280;30041;48.300;16.352;2023-03-24T10:45:33;99025.72;;;21.60;44.72
43312;BME280;30041;48.300;16.352;2023-03-24T10:48:02;99023.59;;;21.62;44.64
43312;BME280;30041;48.300;16.352;2023-03-24T10:50:30;99016.81;;;21.59;44.84
43312;BME280;30041;48.300;16.352;2023-03-24T10:52:56;99018.44;;;21.60;44.62
43312;BME280;30041;48.300;16.352;2023-03-24T10:55:28;99016.06;;;21.64;44.47
43312;BME280;30041;48.300;16.352;2023-03-24T10:57:55;99020.34;;;21.60;44.74
43312;BME280;30041;48.300;16.352;2023-03-24T11:00:27;99009.53;;;21.60;44.58
43312;BME280;30041;48.300;16.352;2023-03-24T11:02:58;99010.91;;;21.62;44.53
43312;BME280;30041;48.300;16.352;2023-03-24T11:05:30;99006.28;;;21.58;44.68
43312;BME280;30041;48.300;16.352;2023-03-24T11:08:13;99007.59;;;21.55;44.64
43312;BME280;30041;48.300;16.352;2023-03-24T11:10:39;99010.34;;;21.60;44.81
43312;BME280;30041;48.300;16.352;2023-03-24T11:13:18;99009.78;;;21.58;44.65
43312;BME280;30041;48.300;16.352;2023-03-24T11:16:11;99002.78;;;21.57;44.82
43312;BME280;30041;48.300;16.352;2023-03-24T11:18:37;99002.25;;;21.60;44.80
43312;BME280;30041;48.300;16.352;2023-03-24T11:21:06;99002.59;;;21.64;44.54
43312;BME280;30041;48.300;16.352;2023-03-24T11:23:38;99002.03;;;21.62;44.71
43312;BME280;30041;48.300;16.352;2023-03-24T11:26:21;98993.03;;;21.56;44.85
43312;BME280;30041;48.300;16.352;2023-03-24T11:28:51;98985.00;;;21.61;44.66
43312;BME280;30041;48.300;16.352;2023-03-24T11:31:26;98990.97;;;21.63;44.67
43312;BME280;30041;48.300;16.352;2023-03-24T11:44:48;98985.38;;;21.97;40.46
43312;BME280;30041;48.300;16.352;2023-03-24T11:47:33;98982.25;;;22.10;40.31
43312;BME280;30041;48.300;16.352;2023-03-24T11:56:26;98975.09;;;22.26;40.86
43312;BME280;30041;48.300;16.352;2023-03-24T12:01:24;98968.97;;;22.36;40.82
43312;BME280;30041;48.300;16.352;2023-03-24T12:06:48;98966.81;;;22.38;40.92
43312;BME280;30041;48.300;16.352;2023-03-24T12:09:23;98966.03;;;22.43;40.96
43312;BME280;30041;48.300;16.352;2023-03-24T12:17:22;98960.94;;;22.46;41.02
43312;BME280;30041;48.300;16.352;2023-03-24T12:20:22;98961.50;;;22.48;41.22
43312;BME280;30041;48.300;16.352;2023-03-24T12:23:04;98963.91;;;22.50;41.03
43312;BME280;30041;48.300;16.352;2023-03-24T12:25:41;98963.94;;;22.55;41.25
43312;BME280;30041;48.300;16.352;2023-03-24T12:30:52;98965.03;;;22.54;41.25
43312;BME280;30041;48.300;16.352;2023-03-24T12:33:47;98952.88;;;22.56;41.23
43312;BME280;30041;48.300;16.352;2023-03-24T12:36:56;98956.88;;;22.11;43.37
43312;BME280;30041;48.300;16.352;2023-03-24T12:39:33;98957.84;;;21.95;44.33
43312;BME280;30041;48.300;16.352;2023-03-24T12:45:00;98959.31;;;21.81;44.52
43312;BME280;30041;48.300;16.352;2023-03-24T12:55:45;98954.44;;;21.77;44.54
43312;BME280;30041;48.300;16.352;2023-03-24T12:58:29;98953.88;;;21.75;45.22
43312;BME280;30041;48.300;16.352;2023-03-24T13:01:09;98963.03;;;21.74;45.04
43312;BME280;30041;48.300;16.352;2023-03-24T13:03:42;98951.22;;;21.81;44.87
43312;BME280;30041;48.300;16.352;2023-03-24T13:06:24;98951.19;;;21.75;45.02
43312;BME280;30041;48.300;16.352;2023-03-24T13:09:02;98951.75;;;21.77;45.14
43312;BME280;30041;48.300;16.352;2023-03-24T13:11:35;98950.94;;;21.77;45.14
43312;BME280;30041;48.300;16.352;2023-03-24T13:14:03;98944.22;;;21.80;45.22
43312;BME280;30041;48.300;16.352;2023-03-24T13:16:36;98946.59;;;21.76;45.85
43312;BME280;30041;48.300;16.352;2023-03-24T13:19:18;98943.91;;;21.76;45.57
43312;BME280;30041;48.300;16.352;2023-03-24T13:21:45;98930.16;;;21.77;45.67
43312;BME280;30041;48.300;16.352;2023-03-24T13:24:12;98936.59;;;21.76;45.69
43312;BME280;30041;48.300;16.352;2023-03-24T13:26:43;98928.84;;;21.80;46.04
43312;BME280;30041;48.300;16.352;2023-03-24T13:32:20;98935.03;;;21.81;44.66
43312;BME280;30041;48.300;16.352;2023-03-24T13:37:24;98950.09;;;21.76;46.20
43312;BME280;30041;48.300;16.352;2023-03-24T13:40:04;98954.41;;;21.72;46.19
43312;BME280;30041;48.300;16.352;2023-03-24T13:42:36;98954.41;;;21.72;46.27
43312;BME280;30041;48.300;16.352;2023-03-24T13:45:06;98951.97;;;21.76;46.35
43312;BME280;30041;48.300;16.352;2023-03-24T13:50:27;98948.28;;;21.82;45.13
43312;BME280;30041;48.300;16.352;2023-03-24T13:53:03;98942.34;;;21.85;45.44
43312;BME280;30041;48.300;16.352;2023-03-24T13:55:34;98935.56;;;21.77;46.24
43312;BME280;30041;48.300;16.352;2023-03-24T13:58:07;98936.38;;;21.78;46.17
43312;BME280;30041;48.300;16.352;2023-03-24T14:03:43;98931.50;;;21.75;46.24
43312;BME280;30041;48.300;16.352;2023-03-24T14:06:14;98925.56;;;21.78;46.18
43312;BME280;30041;48.300;16.352;2023-03-24T14:14:25;98929.28;;;21.72;46.29
43312;BME280;30041;48.300;16.352;2023-03-24T14:16:51;98925.53;;;21.73;43.62
43312;BME280;30041;48.300;16.352;2023-03-24T14:19:21;98922.03;;;21.72;44.38
43312;BME280;30041;48.300;16.352;2023-03-24T14:22:02;98926.59;;;21.72;45.08
43312;BME280;30041;48.300;16.352;2023-03-24T14:24:29;98931.19;;;21.71;46.08
43312;BME280;30041;48.300;16.352;2023-03-24T14:26:55;98924.97;;;21.71;45.99
43312;BME280;30041;48.300;16.352;2023-03-24T14:29:38;98935.81;;;21.76;45.29
43312;BME280;30041;48.300;16.352;2023-03-24T14:32:04;98939.81;;;21.73;45.79
43312;BME280;30041;48.300;16.352;2023-03-24T14:34:30;98938.22;;;21.72;46.17
43312;BME280;30041;48.300;16.352;2023-03-24T14:36:58;98949.25;;;21.71;46.49
43312;BME280;30041;48.300;16.352;2023-03-24T14:39:39;98934.66;;;21.67;46.23
43312;BME280;30041;48.300;16.352;2023-03-24T14:45:05;98940.84;;;21.67;46.31
43312;BME280;30041;48.300;16.352;2023-03-24T14:47:32;98946.56;;;21.71;46.38
43312;BME280;30041;48.300;16.352;2023-03-24T14:50:02;98946.25;;;21.67;45.35
43312;BME280;30041;48.300;16.352;2023-03-24T14:52:40;98953.53;;;21.67;45.54
43312;BME280;30041;48.300;16.352;2023-03-24T14:55:12;98952.44;;;21.68;46.28
43312;BME280;30041;48.300;16.352;2023-03-24T14:57:44;98956.47;;;21.65;46.40
43312;BME280;30041;48.300;16.352;2023-03-24T15:00:34;98953.28;;;21.68;45.27
43312;BME280;30041;48.300;16.352;2023-03-24T15:05:40;98960.81;;;21.66;46.04
43312;BME280;30041;48.300;16.352;2023-03-24T15:08:19;98965.69;;;21.69;45.74